createdAt,value
2023-03-06T00:00:52.806Z,8.60
2023-03-06T00:03:28.410Z,5.32
2023-03-06T00:06:01.238Z,8.70
2023-03-06T00:08:34.225Z,8.27
2023-03-06T00:11:06.723Z,10.30
2023-03-06T00:13:39.696Z,11.98
2023-03-06T00:16:12.549Z,11.13
2023-03-06T00:18:45.535Z,14.88
2023-03-06T00:21:18.036Z,5.20
2023-03-06T00:23:51.131Z,5.85
2023-03-06T00:26:23.658Z,9.75
2023-03-06T00:28:57.710Z,9.15
2023-03-06T00:31:30.327Z,9.98
2023-03-06T00:34:04.069Z,11.05
2023-03-06T00:36:36.734Z,15.20
2023-03-06T00:39:09.667Z,14.18
2023-03-06T00:41:42.243Z,12.60
2023-03-06T00:44:15.218Z,11.60
2023-03-06T00:46:47.784Z,8.43
2023-03-06T00:49:20.737Z,6.05
2023-03-06T00:51:53.325Z,5.72
2023-03-06T00:54:26.249Z,3.15
2023-03-06T00:56:58.971Z,9.73
2023-03-06T00:59:32.061Z,6.93
2023-03-06T01:02:04.730Z,6.95
2023-03-06T01:04:37.937Z,2.03
2023-03-06T01:07:10.863Z,4.03
2023-03-06T01:09:43.804Z,3.28
2023-03-06T01:12:16.560Z,7.18
2023-03-06T01:14:49.531Z,5.40
2023-03-06T01:17:22.232Z,2.10
2023-03-06T01:19:55.164Z,6.32
2023-03-06T01:22:27.663Z,4.00
2023-03-06T01:25:00.649Z,4.53
2023-03-06T01:27:33.119Z,4.65
2023-03-06T01:30:06.346Z,5.05
2023-03-06T01:32:38.899Z,8.02
2023-03-06T01:35:13.196Z,10.18
2023-03-06T01:37:45.684Z,7.43
2023-03-06T01:40:18.639Z,5.22
2023-03-06T01:42:51.280Z,9.25
2023-03-06T01:45:24.221Z,4.00
2023-03-06T01:47:56.750Z,4.82
2023-03-06T01:50:29.785Z,3.35
2023-03-06T01:53:02.377Z,3.20
2023-03-06T01:55:39.773Z,3.63
2023-03-06T01:58:16.847Z,2.17
2023-03-06T02:00:49.790Z,3.53
2023-03-06T02:03:24.457Z,6.57
2023-03-06T02:05:59.132Z,3.42
2023-03-06T02:08:31.872Z,6.18
2023-03-06T02:11:21.828Z,12.70
2023-03-06T02:13:57.063Z,6.38
2023-03-06T02:16:33.301Z,5.32
2023-03-06T02:19:07.829Z,5.13
2023-03-06T02:21:44.717Z,3.90
2023-03-06T02:24:37.142Z,12.35
2023-03-06T02:27:10.852Z,5.32
2023-03-06T02:29:43.931Z,5.35
2023-03-06T02:32:16.947Z,6.18
2023-03-06T02:34:55.620Z,6.60
2023-03-06T02:37:34.366Z,3.08
2023-03-06T02:40:09.808Z,10.15
2023-03-06T02:42:49.581Z,6.70
2023-03-06T02:45:30.695Z,5.93
2023-03-06T02:48:04.030Z,5.85
2023-03-06T02:50:36.569Z,4.60
2023-03-06T02:53:10.407Z,5.70
2023-03-06T02:55:43.508Z,6.28
2023-03-06T02:58:16.809Z,4.65
2023-03-06T03:00:50.148Z,5.68
2023-03-06T03:03:28.774Z,7.72
2023-03-06T03:06:06.392Z,5.25
2023-03-06T03:08:40.590Z,6.32
2023-03-06T03:11:14.151Z,4.78
2023-03-06T03:13:49.821Z,6.68
2023-03-06T03:16:27.577Z,7.90
2023-03-06T03:19:04.167Z,4.95
2023-03-06T03:21:39.349Z,6.57
2023-03-06T03:24:15.288Z,4.70
2023-03-06T03:26:48.288Z,4.47
2023-03-06T03:29:23.893Z,5.88
2023-03-06T03:31:57.003Z,3.80
2023-03-06T03:34:32.203Z,4.65
2023-03-06T03:37:05.333Z,4.07
2023-03-06T03:39:38.250Z,4.20
2023-03-06T03:42:11.749Z,4.72
2023-03-06T03:44:44.847Z,2.58
2023-03-06T03:47:17.559Z,4.20
2023-03-06T03:49:51.912Z,3.00
2023-03-06T03:52:31.465Z,4.43
2023-03-06T03:55:05.279Z,9.32
2023-03-06T03:57:39.569Z,5.65
2023-03-06T04:00:16.872Z,3.78
2023-03-06T04:03:04.489Z,2.38
2023-03-06T04:05:42.213Z,3.80
2023-03-06T04:08:17.230Z,2.78
2023-03-06T04:10:57.779Z,5.10
2023-03-06T04:13:30.375Z,4.53
2023-03-06T04:16:03.655Z,5.10
2023-03-06T04:18:38.205Z,8.60
2023-03-06T04:21:12.172Z,4.22
2023-03-06T04:23:44.881Z,3.25
2023-03-06T04:26:18.877Z,6.53
2023-03-06T04:28:54.880Z,6.03
2023-03-06T04:31:30.288Z,3.63
2023-03-06T04:34:02.918Z,4.22
2023-03-06T04:36:36.146Z,8.35
2023-03-06T04:39:15.402Z,5.70
2023-03-06T04:41:48.337Z,6.43
2023-03-06T04:44:22.746Z,3.85
2023-03-06T04:46:59.084Z,7.57
2023-03-06T04:49:31.551Z,3.80
2023-03-06T04:52:04.872Z,5.68
2023-03-06T04:54:37.624Z,3.60
2023-03-06T04:57:10.840Z,4.63
2023-03-06T04:59:43.379Z,12.80
2023-03-06T05:02:17.880Z,6.65
2023-03-06T05:04:55.269Z,8.35
2023-03-06T05:07:28.221Z,13.57
2023-03-06T05:10:00.886Z,12.18
2023-03-06T05:12:36.010Z,19.70
2023-03-06T05:15:09.383Z,22.90
2023-03-06T05:17:42.399Z,32.33
2023-03-06T05:20:15.355Z,28.75
2023-03-06T05:22:48.426Z,12.30
2023-03-06T05:25:21.127Z,7.70
2023-03-06T05:27:54.003Z,5.80
2023-03-06T05:30:26.508Z,10.15
2023-03-06T05:32:59.880Z,18.80
2023-03-06T05:35:32.558Z,6.32
2023-03-06T05:38:05.572Z,28.83
2023-03-06T05:40:40.286Z,14.13
2023-03-06T05:43:13.252Z,11.88
2023-03-06T05:45:45.868Z,10.85
2023-03-06T05:48:20.650Z,10.63
2023-03-06T05:50:59.962Z,10.65
2023-03-06T05:53:33.034Z,11.57
2023-03-06T05:56:07.116Z,11.50
2023-03-06T05:58:39.965Z,7.25
2023-03-06T06:01:16.564Z,16.60
2023-03-06T06:03:49.473Z,9.40
2023-03-06T06:06:21.990Z,8.90
2023-03-06T06:08:54.872Z,8.55
2023-03-06T06:11:27.356Z,14.68
2023-03-06T06:14:00.258Z,9.80
2023-03-06T06:16:33.343Z,7.78
2023-03-06T06:19:06.311Z,7.90
2023-03-06T06:21:38.838Z,9.02
2023-03-06T06:24:11.958Z,14.57
2023-03-06T06:26:44.674Z,10.25
2023-03-06T06:29:18.070Z,16.08
2023-03-06T06:31:50.700Z,21.48
2023-03-06T06:34:25.976Z,17.58
2023-03-06T06:36:58.608Z,11.95
2023-03-06T06:39:31.676Z,9.57
2023-03-06T06:42:28.307Z,6.22
2023-03-06T06:44:57.398Z,8.32
2023-03-06T06:47:29.998Z,9.27
2023-03-06T06:50:02.970Z,10.25
2023-03-06T06:52:35.441Z,12.60
2023-03-06T06:55:09.041Z,9.40
2023-03-06T06:57:41.983Z,20.70
2023-03-06T07:00:15.278Z,13.85
2023-03-06T07:02:51.509Z,12.13
2023-03-06T07:05:24.464Z,18.48
2023-03-06T07:07:57.032Z,17.08
2023-03-06T07:10:30.025Z,11.38
2023-03-06T07:13:02.885Z,11.38
2023-03-06T07:15:35.951Z,16.60
2023-03-06T07:18:08.513Z,8.90
2023-03-06T07:20:41.588Z,13.63
2023-03-06T07:23:14.445Z,13.63
2023-03-06T07:25:47.756Z,15.23
2023-03-06T07:28:20.735Z,14.20
2023-03-06T07:30:54.419Z,11.30
2023-03-06T07:33:26.894Z,18.15
2023-03-06T07:35:59.862Z,24.48
2023-03-06T07:38:32.388Z,14.40
2023-03-06T07:41:05.557Z,12.45
2023-03-06T07:43:38.060Z,13.02
2023-03-06T07:46:13.788Z,14.50
2023-03-06T07:48:46.326Z,12.95
2023-03-06T07:51:20.386Z,11.82
2023-03-06T07:53:53.067Z,11.85
2023-03-06T07:56:26.047Z,13.75
2023-03-06T07:58:58.583Z,10.68
2023-03-06T08:01:31.526Z,10.48
2023-03-06T08:04:04.217Z,14.63
2023-03-06T08:06:37.111Z,20.63
2023-03-06T08:09:09.606Z,28.90
2023-03-06T08:11:42.497Z,30.23
2023-03-06T08:14:15.243Z,23.73
2023-03-06T08:16:49.388Z,16.45
2023-03-06T08:19:22.307Z,15.18
2023-03-06T08:21:55.197Z,16.70
2023-03-06T08:24:27.818Z,12.80
2023-03-06T08:27:01.249Z,12.23
2023-03-06T08:29:33.794Z,38.60
2023-03-06T08:32:06.844Z,11.57
2023-03-06T08:34:41.767Z,9.90
2023-03-06T08:37:14.684Z,15.15
2023-03-06T08:39:47.201Z,11.40
2023-03-06T08:42:20.418Z,8.90
2023-03-06T08:44:53.082Z,7.57
2023-03-06T08:47:25.971Z,14.27
2023-03-06T08:50:00.570Z,10.43
2023-03-06T08:52:33.755Z,9.35
2023-03-06T08:55:06.644Z,13.13
2023-03-06T08:57:39.577Z,14.27
2023-03-06T09:00:13.150Z,14.43
2023-03-06T09:02:49.484Z,7.60
2023-03-06T09:05:25.174Z,8.48
2023-03-06T09:07:58.018Z,11.50
2023-03-06T09:10:30.590Z,6.55
2023-03-06T09:13:03.805Z,16.83
2023-03-06T09:15:36.584Z,8.65
2023-03-06T09:18:10.284Z,7.32
2023-03-06T09:20:43.293Z,9.43
2023-03-06T09:23:17.208Z,14.68
2023-03-06T09:25:57.402Z,5.55
2023-03-06T09:28:30.640Z,6.78
2023-03-06T09:31:07.684Z,5.97
2023-03-06T09:33:42.854Z,22.20
2023-03-06T09:36:23.263Z,11.20
2023-03-06T09:38:56.130Z,4.40
2023-03-06T09:41:34.814Z,6.80
2023-03-06T09:44:13.887Z,9.27
2023-03-06T09:46:55.395Z,8.98
2023-03-06T09:49:55.334Z,6.05
2023-03-06T09:52:38.861Z,12.40
2023-03-06T09:55:16.476Z,5.18
2023-03-06T09:57:56.015Z,7.75
2023-03-06T10:00:31.349Z,5.82
2023-03-06T10:03:07.239Z,7.18
2023-03-06T10:05:42.466Z,6.78
2023-03-06T10:08:24.551Z,4.35
2023-03-06T10:11:02.448Z,5.00
2023-03-06T10:13:46.152Z,5.80
2023-03-06T10:16:25.341Z,5.00
2023-03-06T10:19:02.473Z,4.53
2023-03-06T10:21:38.600Z,6.45
2023-03-06T10:24:22.020Z,5.43
2023-03-06T10:26:58.299Z,4.28
2023-03-06T10:29:41.044Z,4.38
2023-03-06T10:32:48.408Z,8.55
2023-03-06T10:35:25.958Z,3.85
2023-03-06T10:38:00.947Z,8.52
2023-03-06T10:40:43.551Z,5.07
2023-03-06T10:43:21.286Z,4.10
2023-03-06T10:45:54.035Z,6.70
2023-03-06T10:48:28.431Z,4.30
2023-03-06T10:51:18.139Z,8.07
2023-03-06T10:53:59.038Z,7.32
2023-03-06T10:56:36.116Z,6.63
2023-03-06T10:59:18.107Z,6.35
2023-03-06T11:01:51.508Z,6.18
2023-03-06T11:04:24.554Z,5.57
2023-03-06T11:07:15.026Z,7.22
2023-03-06T11:09:56.932Z,4.65
2023-03-06T11:12:39.747Z,12.57
2023-03-06T11:15:13.080Z,7.63
2023-03-06T11:17:53.824Z,8.63
2023-03-06T11:20:33.566Z,9.37
2023-03-06T11:23:29.408Z,9.30
2023-03-06T11:26:02.691Z,9.00
2023-03-06T11:28:40.035Z,5.88
2023-03-06T11:31:33.193Z,11.90
2023-03-06T11:34:12.211Z,11.95
2023-03-06T11:37:04.004Z,14.57
2023-03-06T11:39:44.078Z,33.03
2023-03-06T11:42:20.137Z,15.70
2023-03-06T11:44:52.695Z,15.85
2023-03-06T11:47:37.770Z,8.48
2023-03-06T11:50:16.100Z,11.23
2023-03-06T11:52:58.280Z,9.45
2023-03-06T11:55:40.133Z,12.23
2023-03-06T11:58:28.416Z,11.98
2023-03-06T12:01:04.474Z,8.63
2023-03-06T12:03:57.844Z,11.32
2023-03-06T12:06:36.268Z,11.68
2023-03-06T12:09:15.288Z,7.03
2023-03-06T12:11:54.637Z,7.32
2023-03-06T12:14:27.523Z,6.55
2023-03-06T12:17:04.368Z,11.15
2023-03-06T12:19:40.284Z,8.00
2023-03-06T12:22:15.690Z,7.43
2023-03-06T12:24:51.683Z,12.38
2023-03-06T12:27:49.063Z,5.00
2023-03-06T12:30:40.920Z,12.55
2023-03-06T12:33:13.457Z,12.40
2023-03-06T12:36:03.996Z,9.13
2023-03-06T12:38:42.721Z,8.60
2023-03-06T12:41:24.668Z,11.75
2023-03-06T12:44:00.223Z,13.45
2023-03-06T12:46:36.233Z,4.25
2023-03-06T12:49:12.389Z,5.15
2023-03-06T12:51:47.014Z,8.93
2023-03-06T12:54:21.939Z,5.40
2023-03-06T12:56:55.792Z,7.38
2023-03-06T12:59:55.508Z,6.13
2023-03-06T13:02:41.154Z,5.22
2023-03-06T13:05:27.490Z,5.68
2023-03-06T13:08:07.652Z,5.72
2023-03-06T13:10:41.043Z,5.55
2023-03-06T13:13:32.854Z,3.92
2023-03-06T13:16:11.526Z,6.45
2023-03-06T13:18:44.484Z,6.88
2023-03-06T13:21:35.635Z,6.45
2023-03-06T13:24:22.470Z,4.70
2023-03-06T13:26:56.285Z,6.15
2023-03-06T13:29:38.053Z,6.80
2023-03-06T13:32:13.538Z,5.90
2023-03-06T13:34:48.729Z,5.65
2023-03-06T13:37:23.391Z,5.55
2023-03-06T13:39:57.283Z,8.77
2023-03-06T13:42:32.068Z,14.57
2023-03-06T13:45:09.451Z,13.57
2023-03-06T13:48:09.671Z,4.55
2023-03-06T13:50:47.367Z,4.65
2023-03-06T13:53:19.907Z,5.88
2023-03-06T13:55:58.820Z,7.85
2023-03-06T13:58:40.187Z,3.33
2023-03-06T14:04:03.896Z,7.22
2023-03-06T14:06:37.628Z,6.80
2023-03-06T14:09:15.501Z,6.57
2023-03-06T14:11:53.621Z,11.40
2023-03-06T14:14:31.010Z,6.75
2023-03-06T14:17:05.256Z,5.40
2023-03-06T14:19:39.019Z,7.05
2023-03-06T14:22:16.153Z,8.00
2023-03-06T14:24:57.025Z,6.07
2023-03-06T14:27:40.236Z,4.97
2023-03-06T14:30:15.112Z,27.88
2023-03-06T14:32:48.901Z,7.18
2023-03-06T14:35:21.605Z,7.50
2023-03-06T14:37:57.408Z,22.77
2023-03-06T14:40:35.069Z,13.98
2023-03-06T14:43:19.610Z,11.25
2023-03-06T14:45:56.522Z,14.23
2023-03-06T14:48:45.666Z,7.68
2023-03-06T14:51:18.191Z,4.75
2023-03-06T14:53:52.066Z,6.43
2023-03-06T14:56:26.208Z,8.50
2023-03-06T14:59:00.576Z,9.18
2023-03-06T15:01:41.204Z,8.13
2023-03-06T15:04:32.378Z,6.32
2023-03-06T15:07:16.511Z,9.98
2023-03-06T15:09:51.073Z,3.38
2023-03-06T15:12:23.641Z,8.93
2023-03-06T15:14:58.422Z,8.40
2023-03-06T15:17:32.828Z,7.63
2023-03-06T15:20:10.070Z,10.38
2023-03-06T15:22:42.733Z,7.07
2023-03-06T15:25:31.514Z,6.35
2023-03-06T15:28:19.618Z,5.45
2023-03-06T15:31:22.203Z,10.75
2023-03-06T15:34:02.293Z,13.00
2023-03-06T15:36:44.071Z,7.82
2023-03-06T15:39:31.952Z,8.18
2023-03-06T15:42:14.885Z,10.35
2023-03-06T15:44:49.391Z,8.85
2023-03-06T15:47:23.313Z,12.07
2023-03-06T15:49:56.638Z,15.50
2023-03-06T15:52:29.538Z,16.52
2023-03-06T15:55:02.122Z,15.18
2023-03-06T15:57:35.094Z,13.18
2023-03-06T16:00:26.714Z,12.65
2023-03-06T16:03:00.768Z,13.75
2023-03-06T16:05:33.429Z,9.85
2023-03-06T16:08:06.687Z,15.48
2023-03-06T16:10:40.839Z,17.40
2023-03-06T16:13:19.040Z,19.00
2023-03-06T16:15:51.667Z,15.55
2023-03-06T16:18:24.545Z,11.98
2023-03-06T16:20:57.317Z,11.07
2023-03-06T16:23:30.878Z,15.27
2023-03-06T16:26:03.370Z,15.05
2023-03-06T16:28:40.918Z,21.63
2023-03-06T16:31:16.607Z,7.63
2023-03-06T16:33:49.675Z,8.65
2023-03-06T16:36:23.576Z,9.88
2023-03-06T16:38:56.489Z,12.43
2023-03-06T16:41:29.030Z,13.35
2023-03-06T16:44:02.065Z,12.02
2023-03-06T16:46:37.431Z,10.25
2023-03-06T16:49:15.622Z,9.82
2023-03-06T16:51:48.461Z,9.32
2023-03-06T16:54:23.493Z,9.57
2023-03-06T16:56:56.004Z,12.40
2023-03-06T16:59:29.141Z,6.35
2023-03-06T17:02:01.714Z,12.55
2023-03-06T17:04:34.744Z,20.45
2023-03-06T17:07:07.263Z,15.27
2023-03-06T17:09:40.128Z,12.45
2023-03-06T17:12:12.715Z,9.23
2023-03-06T17:14:45.788Z,11.65
2023-03-06T17:17:18.264Z,18.83
2023-03-06T17:19:51.252Z,24.00
2023-03-06T17:22:23.830Z,21.33
2023-03-06T17:24:56.919Z,20.02
2023-03-06T17:27:29.561Z,17.55
2023-03-06T17:30:02.788Z,18.42
2023-03-06T17:32:35.366Z,13.57
2023-03-06T17:35:09.577Z,11.93
2023-03-06T17:37:42.024Z,20.42
2023-03-06T17:40:15.934Z,14.57
2023-03-06T17:42:48.769Z,10.32
2023-03-06T17:45:21.788Z,17.25
2023-03-06T17:47:54.732Z,13.23
2023-03-06T17:50:27.580Z,16.35
2023-03-06T17:53:00.149Z,11.35
2023-03-06T17:55:33.082Z,17.42
2023-03-06T17:58:05.589Z,16.17
2023-03-06T18:00:39.002Z,10.10
2023-03-06T18:03:11.747Z,13.77
2023-03-06T18:05:44.774Z,17.30
2023-03-06T18:08:17.355Z,16.88
2023-03-06T18:10:50.251Z,9.05
2023-03-06T18:13:22.710Z,9.77
2023-03-06T18:15:55.628Z,7.80
2023-03-06T18:18:29.888Z,9.48
2023-03-06T18:21:10.565Z,11.10
2023-03-06T18:23:43.169Z,6.70
2023-03-06T18:26:19.295Z,12.45
2023-03-06T18:28:53.896Z,10.15
2023-03-06T18:31:29.300Z,18.40
2023-03-06T18:34:03.529Z,16.75
2023-03-06T18:36:37.292Z,14.48
2023-03-06T18:39:11.804Z,21.48
2023-03-06T18:41:44.855Z,16.10
2023-03-06T18:44:17.901Z,17.23
2023-03-06T18:46:50.804Z,23.83
2023-03-06T18:49:23.320Z,20.95
2023-03-06T18:51:56.238Z,22.45
2023-03-06T18:54:29.967Z,15.70
2023-03-06T18:57:02.933Z,27.50
2023-03-06T18:59:35.474Z,20.80
2023-03-06T19:02:08.858Z,22.92
2023-03-06T19:04:41.487Z,19.20
2023-03-06T19:07:14.363Z,21.42
2023-03-06T19:09:48.393Z,36.70
2023-03-06T19:12:21.308Z,27.63
2023-03-06T19:14:53.855Z,47.35
2023-03-06T19:17:26.741Z,41.20
2023-03-06T19:19:59.231Z,45.50
2023-03-06T19:22:34.540Z,41.72
2023-03-06T19:25:08.142Z,30.85
2023-03-06T19:27:43.498Z,19.60
2023-03-06T19:30:16.551Z,24.00
2023-03-06T19:32:49.444Z,33.70
2023-03-06T19:35:22.735Z,75.63
2023-03-06T19:37:55.693Z,96.07
2023-03-06T19:40:28.369Z,125.10
2023-03-06T19:43:01.237Z,130.10
2023-03-06T19:45:34.886Z,119.15
2023-03-06T19:48:10.495Z,84.20
2023-03-06T19:50:43.004Z,62.08
2023-03-06T19:53:16.386Z,49.47
2023-03-06T19:55:49.102Z,28.23
2023-03-06T19:58:22.125Z,24.90
2023-03-06T20:00:54.607Z,31.02
2023-03-06T20:03:27.577Z,19.38
2023-03-06T20:06:00.166Z,30.02
2023-03-06T20:08:33.107Z,33.03
2023-03-06T20:11:05.695Z,23.60
2023-03-06T20:13:42.679Z,20.13
2023-03-06T20:16:19.748Z,22.70
2023-03-06T20:18:53.019Z,23.95
2023-03-06T20:21:26.228Z,31.23
2023-03-06T20:23:59.726Z,20.20
2023-03-06T20:26:34.360Z,34.30
2023-03-06T20:29:07.687Z,32.35
2023-03-06T20:31:41.074Z,22.88
2023-03-06T20:34:14.205Z,46.72
2023-03-06T20:36:46.800Z,37.60
2023-03-06T20:39:21.961Z,28.63
2023-03-06T20:41:55.159Z,24.83
2023-03-06T20:44:29.092Z,23.98
2023-03-06T20:47:01.862Z,23.63
2023-03-06T20:49:34.756Z,18.73
2023-03-06T20:52:07.305Z,18.60
2023-03-06T20:54:40.179Z,26.45
2023-03-06T20:57:12.667Z,19.45
2023-03-06T20:59:45.711Z,24.45
2023-03-06T21:02:18.442Z,27.05
2023-03-06T21:04:51.687Z,33.67
2023-03-06T21:07:24.309Z,30.98
2023-03-06T21:09:57.190Z,34.22
2023-03-06T21:12:29.659Z,40.97
2023-03-06T21:15:02.720Z,45.17
2023-03-06T21:17:35.267Z,49.13
2023-03-06T21:20:08.486Z,51.85
2023-03-06T21:22:41.022Z,45.35
2023-03-06T21:25:14.105Z,56.65
2023-03-06T21:27:46.948Z,35.03
2023-03-06T21:30:19.927Z,24.00
2023-03-06T21:32:53.329Z,27.23
2023-03-06T21:35:26.284Z,30.95
2023-03-06T21:37:58.749Z,21.85
2023-03-06T21:40:31.656Z,20.77
2023-03-06T21:43:04.478Z,22.52
2023-03-06T21:45:37.625Z,26.63
2023-03-06T21:48:10.199Z,24.38
2023-03-06T21:50:43.155Z,25.92
2023-03-06T21:53:16.019Z,23.85
2023-03-06T21:55:48.909Z,22.17
2023-03-06T21:58:21.350Z,25.33
2023-03-06T22:00:54.288Z,19.52
2023-03-06T22:03:27.110Z,17.17
2023-03-06T22:06:07.262Z,14.55
2023-03-06T22:08:40.040Z,20.65
2023-03-06T22:11:14.129Z,17.42
2023-03-06T22:13:47.515Z,21.48
2023-03-06T22:16:21.210Z,22.05
2023-03-06T22:18:53.966Z,19.48
2023-03-06T22:21:26.843Z,17.70
2023-03-06T22:23:59.592Z,42.78
2023-03-06T22:26:32.634Z,53.78
2023-03-06T22:29:05.163Z,39.03
2023-03-06T22:31:40.211Z,24.30
2023-03-06T22:34:13.124Z,19.63
2023-03-06T22:36:46.075Z,22.88
2023-03-06T22:39:18.652Z,15.38
2023-03-06T22:41:51.727Z,19.15
2023-03-06T22:44:24.362Z,12.52
2023-03-06T22:46:58.091Z,21.10
2023-03-06T22:49:30.704Z,14.70
2023-03-06T22:52:04.019Z,19.42
2023-03-06T22:54:36.609Z,19.30
2023-03-06T22:57:09.502Z,22.92
2023-03-06T22:59:42.120Z,56.83
2023-03-06T23:02:14.994Z,39.17
2023-03-06T23:04:53.643Z,18.88
2023-03-06T23:07:26.512Z,20.77
2023-03-06T23:10:07.282Z,27.20
2023-03-06T23:12:58.473Z,27.42
2023-03-06T23:15:49.455Z,32.67
2023-03-06T23:21:32.186Z,16.05
2023-03-06T23:24:23.608Z,18.30
2023-03-06T23:26:56.212Z,19.50
2023-03-06T23:29:29.140Z,20.40
2023-03-06T23:32:01.834Z,15.10
2023-03-06T23:34:34.801Z,20.13
2023-03-06T23:37:07.702Z,18.90
2023-03-06T23:39:41.622Z,19.80
2023-03-06T23:42:14.250Z,15.38
2023-03-06T23:44:47.291Z,29.88
2023-03-06T23:47:20.403Z,32.88
2023-03-06T23:49:53.292Z,48.17
2023-03-06T23:52:25.970Z,49.90
2023-03-06T23:54:59.220Z,39.97
2023-03-06T23:57:31.775Z,33.53
